sensor_id;sensor_type;location;lat;lon;timestamp;P1;durP1;ratioP1;P2;durP2;ratioP2
10705;SDS011;5404;42.656;23.336;2023-05-10T00:00:38;16.15;;;10.23;;
10705;SDS011;5404;42.656;23.336;2023-05-10T00:03:04;13.30;;;9.13;;
10705;SDS011;5404;42.656;23.336;2023-05-10T00:05:30;15.75;;;9.90;;
10705;SDS011;5404;42.656;23.336;2023-05-10T00:07:56;17.13;;;11.00;;
10705;SDS011;5404;42.656;23.336;2023-05-10T00:10:23;15.02;;;9.98;;
10705;SDS011;5404;42.656;23.336;2023-05-10T00:12:48;12.10;;;8.88;;
10705;SDS011;5404;42.656;23.336;2023-05-10T00:15:14;13.75;;;9.23;;
10705;SDS011;5404;42.656;23.336;2023-05-10T00:17:39;16.60;;;9.10;;
10705;SDS011;5404;42.656;23.336;2023-05-10T00:20:06;12.98;;;8.70;;
10705;SDS011;5404;42.656;23.336;2023-05-10T00:22:32;12.25;;;9.20;;
10705;SDS011;5404;42.656;23.336;2023-05-10T00:24:58;15.95;;;10.60;;
10705;SDS011;5404;42.656;23.336;2023-05-10T00:27:24;15.27;;;9.23;;
10705;SDS011;5404;42.656;23.336;2023-05-10T00:29:49;14.43;;;10.05;;
10705;SDS011;5404;42.656;23.336;2023-05-10T00:32:15;14.90;;;10.60;;
10705;SDS011;5404;42.656;23.336;2023-05-10T00:34:41;13.55;;;10.05;;
10705;SDS011;5404;42.656;23.336;2023-05-10T00:37:06;13.98;;;9.95;;
10705;SDS011;5404;42.656;23.336;2023-05-10T00:39:31;12.63;;;9.13;;
10705;SDS011;5404;42.656;23.336;2023-05-10T00:41:57;15.35;;;10.75;;
10705;SDS011;5404;42.656;23.336;2023-05-10T00:44:22;14.68;;;10.60;;
10705;SDS011;5404;42.656;23.336;2023-05-10T00:46:49;18.58;;;12.25;;
10705;SDS011;5404;42.656;23.336;2023-05-10T00:49:15;16.25;;;10.48;;
10705;SDS011;5404;42.656;23.336;2023-05-10T00:51:41;19.05;;;11.13;;
10705;SDS011;5404;42.656;23.336;2023-05-10T00:54:08;17.08;;;11.20;;
10705;SDS011;5404;42.656;23.336;2023-05-10T00:56:36;19.45;;;11.43;;
10705;SDS011;5404;42.656;23.336;2023-05-10T00:59:01;16.23;;;11.95;;
10705;SDS011;5404;42.656;23.336;2023-05-10T01:01:27;16.33;;;11.05;;
10705;SDS011;5404;42.656;23.336;2023-05-10T01:03:54;15.88;;;10.88;;
10705;SDS011;5404;42.656;23.336;2023-05-10T01:06:20;16.08;;;11.02;;
10705;SDS011;5404;42.656;23.336;2023-05-10T01:08:45;17.27;;;12.23;;
10705;SDS011;5404;42.656;23.336;2023-05-10T01:11:12;18.60;;;12.95;;
10705;SDS011;5404;42.656;23.336;2023-05-10T01:13:38;17.55;;;11.52;;
10705;SDS011;5404;42.656;23.336;2023-05-10T01:16:07;17.77;;;12.20;;
10705;SDS011;5404;42.656;23.336;2023-05-10T01:18:33;16.58;;;10.73;;
10705;SDS011;5404;42.656;23.336;2023-05-10T01:21:08;18.60;;;11.48;;
10705;SDS011;5404;42.656;23.336;2023-05-10T01:23:42;14.57;;;9.95;;
10705;SDS011;5404;42.656;23.336;2023-05-10T01:34:53;21.67;;;12.00;;
10705;SDS011;5404;42.656;23.336;2023-05-10T01:37:33;17.30;;;10.93;;
10705;SDS011;5404;42.656;23.336;2023-05-10T01:40:08;15.52;;;11.23;;
10705;SDS011;5404;42.656;23.336;2023-05-10T01:42:52;10.90;;;7.95;;
10705;SDS011;5404;42.656;23.336;2023-05-10T01:48:07;13.30;;;8.55;;
10705;SDS011;5404;42.656;23.336;2023-05-10T01:50:35;11.02;;;7.75;;
10705;SDS011;5404;42.656;23.336;2023-05-10T01:53:03;7.65;;;6.32;;
10705;SDS011;5404;42.656;23.336;2023-05-10T02:00:40;7.90;;;5.38;;
10705;SDS011;5404;42.656;23.336;2023-05-10T02:03:08;11.85;;;6.40;;
10705;SDS011;5404;42.656;23.336;2023-05-10T02:05:35;9.05;;;6.38;;
10705;SDS011;5404;42.656;23.336;2023-05-10T02:08:03;11.85;;;6.82;;
10705;SDS011;5404;42.656;23.336;2023-05-10T02:10:32;9.98;;;6.50;;
10705;SDS011;5404;42.656;23.336;2023-05-10T02:13:00;11.30;;;6.88;;
10705;SDS011;5404;42.656;23.336;2023-05-10T02:15:27;8.55;;;6.53;;
10705;SDS011;5404;42.656;23.336;2023-05-10T02:17:55;8.50;;;6.43;;
10705;SDS011;5404;42.656;23.336;2023-05-10T02:20:21;15.10;;;7.13;;
10705;SDS011;5404;42.656;23.336;2023-05-10T02:22:49;8.13;;;5.70;;
10705;SDS011;5404;42.656;23.336;2023-05-10T02:25:17;16.87;;;6.67;;
10705;SDS011;5404;42.656;23.336;2023-05-10T02:27:44;13.48;;;6.20;;
10705;SDS011;5404;42.656;23.336;2023-05-10T02:30:10;8.48;;;5.50;;
10705;SDS011;5404;42.656;23.336;2023-05-10T02:32:37;8.85;;;6.22;;
10705;SDS011;5404;42.656;23.336;2023-05-10T02:35:04;9.82;;;6.15;;
10705;SDS011;5404;42.656;23.336;2023-05-10T02:37:34;8.40;;;5.43;;
10705;SDS011;5404;42.656;23.336;2023-05-10T02:40:02;6.47;;;4.65;;
10705;SDS011;5404;42.656;23.336;2023-05-10T02:42:28;16.35;;;5.68;;
10705;SDS011;5404;42.656;23.336;2023-05-10T02:44:59;10.23;;;5.93;;
10705;SDS011;5404;42.656;23.336;2023-05-10T02:47:31;11.75;;;7.22;;
10705;SDS011;5404;42.656;23.336;2023-05-10T02:49:57;13.48;;;6.50;;
10705;SDS011;5404;42.656;23.336;2023-05-10T02:52:27;10.90;;;6.47;;
10705;SDS011;5404;42.656;23.336;2023-05-10T02:54:58;14.18;;;6.75;;
10705;SDS011;5404;42.656;23.336;2023-05-10T02:57:28;13.10;;;6.80;;
10705;SDS011;5404;42.656;23.336;2023-05-10T02:59:58;11.20;;;6.50;;
10705;SDS011;5404;42.656;23.336;2023-05-10T03:02:25;11.80;;;6.80;;
10705;SDS011;5404;42.656;23.336;2023-05-10T03:04:51;10.55;;;6.28;;
10705;SDS011;5404;42.656;23.336;2023-05-10T03:07:16;9.27;;;6.03;;
10705;SDS011;5404;42.656;23.336;2023-05-10T03:09:44;11.38;;;5.22;;
10705;SDS011;5404;42.656;23.336;2023-05-10T03:15:11;12.50;;;7.95;;
10705;SDS011;5404;42.656;23.336;2023-05-10T03:20:25;10.55;;;6.65;;
10705;SDS011;5404;42.656;23.336;2023-05-10T03:25:47;12.80;;;7.15;;
10705;SDS011;5404;42.656;23.336;2023-05-10T03:28:14;8.38;;;5.80;;
10705;SDS011;5404;42.656;23.336;2023-05-10T03:30:41;9.73;;;6.43;;
10705;SDS011;5404;42.656;23.336;2023-05-10T03:33:08;11.35;;;6.70;;
10705;SDS011;5404;42.656;23.336;2023-05-10T03:35:34;11.15;;;6.70;;
10705;SDS011;5404;42.656;23.336;2023-05-10T03:37:59;11.45;;;5.80;;
10705;SDS011;5404;42.656;23.336;2023-05-10T03:40:26;8.52;;;5.55;;
10705;SDS011;5404;42.656;23.336;2023-05-10T03:42:54;11.65;;;6.05;;
10705;SDS011;5404;42.656;23.336;2023-05-10T03:45:20;9.27;;;5.65;;
10705;SDS011;5404;42.656;23.336;2023-05-10T03:47:45;11.10;;;4.93;;
10705;SDS011;5404;42.656;23.336;2023-05-10T03:50:11;11.20;;;6.18;;
10705;SDS011;5404;42.656;23.336;2023-05-10T03:52:36;10.98;;;6.63;;
10705;SDS011;5404;42.656;23.336;2023-05-10T03:55:04;11.95;;;6.90;;
10705;SDS011;5404;42.656;23.336;2023-05-10T03:57:30;16.08;;;7.28;;
10705;SDS011;5404;42.656;23.336;2023-05-10T03:59:55;8.35;;;5.50;;
10705;SDS011;5404;42.656;23.336;2023-05-10T04:02:21;12.93;;;5.28;;
10705;SDS011;5404;42.656;23.336;2023-05-10T04:04:46;13.05;;;6.30;;
10705;SDS011;5404;42.656;23.336;2023-05-10T04:07:13;14.52;;;6.95;;
10705;SDS011;5404;42.656;23.336;2023-05-10T04:09:38;13.40;;;6.07;;
10705;SDS011;5404;42.656;23.336;2023-05-10T04:12:04;9.63;;;5.78;;
10705;SDS011;5404;42.656;23.336;2023-05-10T04:14:31;8.52;;;6.00;;
10705;SDS011;5404;42.656;23.336;2023-05-10T04:16:56;10.70;;;5.15;;
10705;SDS011;5404;42.656;23.336;2023-05-10T04:19:21;11.38;;;6.32;;
10705;SDS011;5404;42.656;23.336;2023-05-10T04:21:47;12.48;;;6.72;;
10705;SDS011;5404;42.656;23.336;2023-05-10T04:24:13;13.27;;;6.38;;
10705;SDS011;5404;42.656;23.336;2023-05-10T04:26:38;8.68;;;5.78;;
10705;SDS011;5404;42.656;23.336;2023-05-10T04:29:03;9.43;;;5.85;;
10705;SDS011;5404;42.656;23.336;2023-05-10T04:31:29;13.07;;;6.82;;
10705;SDS011;5404;42.656;23.336;2023-05-10T04:33:57;13.73;;;5.90;;
10705;SDS011;5404;42.656;23.336;2023-05-10T04:36:23;8.57;;;5.63;;
10705;SDS011;5404;42.656;23.336;2023-05-10T04:38:48;6.97;;;5.57;;
10705;SDS011;5404;42.656;23.336;2023-05-10T04:41:14;10.82;;;6.03;;
10705;SDS011;5404;42.656;23.336;2023-05-10T04:43:39;11.55;;;6.78;;
10705;SDS011;5404;42.656;23.336;2023-05-10T04:46:06;19.90;;;9.02;;
10705;SDS011;5404;42.656;23.336;2023-05-10T04:48:33;12.23;;;6.17;;
10705;SDS011;5404;42.656;23.336;2023-05-10T04:50:59;11.35;;;7.55;;
10705;SDS011;5404;42.656;23.336;2023-05-10T04:53:24;14.20;;;7.13;;
10705;SDS011;5404;42.656;23.336;2023-05-10T04:55:50;11.73;;;6.25;;
10705;SDS011;5404;42.656;23.336;2023-05-10T04:58:15;15.65;;;7.10;;
10705;SDS011;5404;42.656;23.336;2023-05-10T05:00:41;9.80;;;6.10;;
10705;SDS011;5404;42.656;23.336;2023-05-10T05:03:09;12.30;;;7.05;;
10705;SDS011;5404;42.656;23.336;2023-05-10T05:05:34;11.57;;;6.45;;
10705;SDS011;5404;42.656;23.336;2023-05-10T05:08:00;12.85;;;6.80;;
10705;SDS011;5404;42.656;23.336;2023-05-10T05:10:25;12.73;;;7.47;;
10705;SDS011;5404;42.656;23.336;2023-05-10T05:12:51;11.73;;;7.55;;
10705;SDS011;5404;42.656;23.336;2023-05-10T05:15:16;9.35;;;6.30;;
10705;SDS011;5404;42.656;23.336;2023-05-10T05:17:44;12.05;;;6.65;;
10705;SDS011;5404;42.656;23.336;2023-05-10T05:20:10;9.70;;;6.45;;
10705;SDS011;5404;42.656;23.336;2023-05-10T05:22:36;15.57;;;7.68;;
10705;SDS011;5404;42.656;23.336;2023-05-10T05:25:05;19.08;;;7.97;;
10705;SDS011;5404;42.656;23.336;2023-05-10T05:27:31;12.63;;;7.40;;
10705;SDS011;5404;42.656;23.336;2023-05-10T05:29:57;12.38;;;6.70;;
10705;SDS011;5404;42.656;23.336;2023-05-10T05:32:23;10.27;;;6.95;;
10705;SDS011;5404;42.656;23.336;2023-05-10T05:34:49;13.95;;;8.30;;
10705;SDS011;5404;42.656;23.336;2023-05-10T05:37:15;16.30;;;6.70;;
10705;SDS011;5404;42.656;23.336;2023-05-10T05:39:42;14.88;;;8.10;;
10705;SDS011;5404;42.656;23.336;2023-05-10T05:42:08;13.15;;;7.72;;
10705;SDS011;5404;42.656;23.336;2023-05-10T05:44:34;14.85;;;8.18;;
10705;SDS011;5404;42.656;23.336;2023-05-10T05:47:01;15.68;;;8.73;;
10705;SDS011;5404;42.656;23.336;2023-05-10T05:49:26;17.50;;;8.38;;
10705;SDS011;5404;42.656;23.336;2023-05-10T05:51:52;22.00;;;9.20;;
10705;SDS011;5404;42.656;23.336;2023-05-10T05:54:17;14.27;;;8.98;;
10705;SDS011;5404;42.656;23.336;2023-05-10T05:56:43;14.07;;;9.90;;
10705;SDS011;5404;42.656;23.336;2023-05-10T05:59:09;16.10;;;9.85;;
10705;SDS011;5404;42.656;23.336;2023-05-10T06:01:35;18.15;;;9.95;;
10705;SDS011;5404;42.656;23.336;2023-05-10T06:04:01;16.58;;;9.73;;
10705;SDS011;5404;42.656;23.336;2023-05-10T06:06:26;21.27;;;11.40;;
10705;SDS011;5404;42.656;23.336;2023-05-10T06:08:53;19.10;;;11.73;;
10705;SDS011;5404;42.656;23.336;2023-05-10T06:11:19;17.90;;;10.18;;
10705;SDS011;5404;42.656;23.336;2023-05-10T06:13:46;23.92;;;12.25;;
10705;SDS011;5404;42.656;23.336;2023-05-10T06:16:12;21.67;;;11.88;;
10705;SDS011;5404;42.656;23.336;2023-05-10T06:18:40;18.30;;;11.18;;
10705;SDS011;5404;42.656;23.336;2023-05-10T06:21:05;20.27;;;12.20;;
10705;SDS011;5404;42.656;23.336;2023-05-10T06:23:31;17.58;;;11.43;;
10705;SDS011;5404;42.656;23.336;2023-05-10T06:25:59;15.35;;;8.80;;
10705;SDS011;5404;42.656;23.336;2023-05-10T06:28:24;20.67;;;11.32;;
10705;SDS011;5404;42.656;23.336;2023-05-10T06:30:50;19.92;;;11.65;;
10705;SDS011;5404;42.656;23.336;2023-05-10T06:33:15;19.73;;;11.95;;
10705;SDS011;5404;42.656;23.336;2023-05-10T06:35:41;21.65;;;11.73;;
10705;SDS011;5404;42.656;23.336;2023-05-10T06:38:09;23.50;;;11.25;;
10705;SDS011;5404;42.656;23.336;2023-05-10T06:40:34;18.95;;;10.70;;
10705;SDS011;5404;42.656;23.336;2023-05-10T06:43:02;18.00;;;10.65;;
10705;SDS011;5404;42.656;23.336;2023-05-10T06:45:30;22.25;;;12.00;;
10705;SDS011;5404;42.656;23.336;2023-05-10T06:47:56;16.70;;;10.15;;
10705;SDS011;5404;42.656;23.336;2023-05-10T06:50:22;17.40;;;9.93;;
10705;SDS011;5404;42.656;23.336;2023-05-10T06:52:48;16.63;;;10.80;;
10705;SDS011;5404;42.656;23.336;2023-05-10T06:55:13;15.10;;;9.85;;
10705;SDS011;5404;42.656;23.336;2023-05-10T06:57:40;15.82;;;9.48;;
10705;SDS011;5404;42.656;23.336;2023-05-10T07:00:05;19.65;;;8.88;;
10705;SDS011;5404;42.656;23.336;2023-05-10T07:02:32;14.50;;;9.95;;
10705;SDS011;5404;42.656;23.336;2023-05-10T07:04:57;15.27;;;9.15;;
10705;SDS011;5404;42.656;23.336;2023-05-10T07:07:23;16.08;;;9.02;;
10705;SDS011;5404;42.656;23.336;2023-05-10T07:09:48;16.17;;;9.93;;
10705;SDS011;5404;42.656;23.336;2023-05-10T07:12:14;16.23;;;9.40;;
10705;SDS011;5404;42.656;23.336;2023-05-10T07:14:41;16.10;;;8.32;;
10705;SDS011;5404;42.656;23.336;2023-05-10T07:17:07;15.88;;;10.07;;
10705;SDS011;5404;42.656;23.336;2023-05-10T07:19:33;15.30;;;8.88;;
10705;SDS011;5404;42.656;23.336;2023-05-10T07:21:59;16.95;;;9.88;;
10705;SDS011;5404;42.656;23.336;2023-05-10T07:24:25;14.90;;;9.07;;
10705;SDS011;5404;42.656;23.336;2023-05-10T07:26:52;15.77;;;9.55;;
10705;SDS011;5404;42.656;23.336;2023-05-10T07:29:18;17.20;;;8.93;;
10705;SDS011;5404;42.656;23.336;2023-05-10T07:31:43;18.73;;;10.65;;
10705;SDS011;5404;42.656;23.336;2023-05-10T07:34:09;30.35;;;12.07;;
10705;SDS011;5404;42.656;23.336;2023-05-10T07:36:34;22.85;;;10.70;;
10705;SDS011;5404;42.656;23.336;2023-05-10T07:39:00;23.05;;;11.10;;
10705;SDS011;5404;42.656;23.336;2023-05-10T07:41:25;27.95;;;11.95;;
10705;SDS011;5404;42.656;23.336;2023-05-10T07:43:51;22.90;;;12.95;;
10705;SDS011;5404;42.656;23.336;2023-05-10T07:46:17;18.70;;;11.35;;
10705;SDS011;5404;42.656;23.336;2023-05-10T07:48:44;23.77;;;11.07;;
10705;SDS011;5404;42.656;23.336;2023-05-10T07:51:10;20.25;;;11.25;;
10705;SDS011;5404;42.656;23.336;2023-05-10T07:53:36;24.42;;;12.05;;
10705;SDS011;5404;42.656;23.336;2023-05-10T07:59:10;20.80;;;11.43;;
10705;SDS011;5404;42.656;23.336;2023-05-10T08:01:39;21.77;;;11.50;;
10705;SDS011;5404;42.656;23.336;2023-05-10T08:04:05;20.42;;;11.68;;
10705;SDS011;5404;42.656;23.336;2023-05-10T08:06:30;19.17;;;10.88;;
10705;SDS011;5404;42.656;23.336;2023-05-10T08:08:57;29.05;;;11.98;;
10705;SDS011;5404;42.656;23.336;2023-05-10T08:11:23;25.08;;;10.75;;
10705;SDS011;5404;42.656;23.336;2023-05-10T08:13:49;25.50;;;12.30;;
10705;SDS011;5404;42.656;23.336;2023-05-10T08:16:16;20.70;;;12.07;;
10705;SDS011;5404;42.656;23.336;2023-05-10T08:18:43;16.05;;;9.82;;
10705;SDS011;5404;42.656;23.336;2023-05-10T08:21:11;25.58;;;11.82;;
10705;SDS011;5404;42.656;23.336;2023-05-10T08:23:39;20.15;;;10.25;;
10705;SDS011;5404;42.656;23.336;2023-05-10T08:26:04;18.65;;;10.25;;
10705;SDS011;5404;42.656;23.336;2023-05-10T08:28:30;22.95;;;11.45;;
10705;SDS011;5404;42.656;23.336;2023-05-10T08:30:55;19.23;;;10.93;;
10705;SDS011;5404;42.656;23.336;2023-05-10T08:33:22;17.65;;;11.48;;
10705;SDS011;5404;42.656;23.336;2023-05-10T08:35:48;19.05;;;11.18;;
10705;SDS011;5404;42.656;23.336;2023-05-10T08:38:13;35.25;;;13.73;;
10705;SDS011;5404;42.656;23.336;2023-05-10T08:40:41;25.20;;;11.20;;
10705;SDS011;5404;42.656;23.336;2023-05-10T08:43:11;14.73;;;9.63;;
10705;SDS011;5404;42.656;23.336;2023-05-10T08:45:44;14.00;;;7.97;;
10705;SDS011;5404;42.656;23.336;2023-05-10T08:48:13;20.42;;;12.15;;
10705;SDS011;5404;42.656;23.336;2023-05-10T08:50:39;18.30;;;11.77;;
10705;SDS011;5404;42.656;23.336;2023-05-10T08:53:10;18.40;;;11.43;;
10705;SDS011;5404;42.656;23.336;2023-05-10T08:55:37;20.33;;;11.52;;
10705;SDS011;5404;42.656;23.336;2023-05-10T08:58:04;16.92;;;11.18;;
10705;SDS011;5404;42.656;23.336;2023-05-10T09:00:30;21.58;;;13.73;;
10705;SDS011;5404;42.656;23.336;2023-05-10T09:02:59;16.73;;;11.65;;
10705;SDS011;5404;42.656;23.336;2023-05-10T09:05:26;21.40;;;11.85;;
10705;SDS011;5404;42.656;23.336;2023-05-10T09:07:52;22.98;;;13.63;;
10705;SDS011;5404;42.656;23.336;2023-05-10T09:10:17;19.77;;;11.57;;
10705;SDS011;5404;42.656;23.336;2023-05-10T09:12:44;24.67;;;11.80;;
10705;SDS011;5404;42.656;23.336;2023-05-10T09:15:10;22.92;;;12.60;;
10705;SDS011;5404;42.656;23.336;2023-05-10T09:17:38;16.17;;;10.02;;
10705;SDS011;5404;42.656;23.336;2023-05-10T09:20:05;15.70;;;9.82;;
10705;SDS011;5404;42.656;23.336;2023-05-10T09:22:33;23.70;;;13.27;;
10705;SDS011;5404;42.656;23.336;2023-05-10T09:25:06;34.85;;;19.38;;
10705;SDS011;5404;42.656;23.336;2023-05-10T09:27:36;18.08;;;12.63;;
10705;SDS011;5404;42.656;23.336;2023-05-10T09:30:03;20.55;;;12.18;;
10705;SDS011;5404;42.656;23.336;2023-05-10T09:32:42;19.33;;;12.18;;
10705;SDS011;5404;42.656;23.336;2023-05-10T09:35:10;19.67;;;11.15;;
10705;SDS011;5404;42.656;23.336;2023-05-10T09:37:48;17.25;;;10.63;;
10705;SDS011;5404;42.656;23.336;2023-05-10T09:40:16;18.70;;;12.70;;
10705;SDS011;5404;42.656;23.336;2023-05-10T09:42:50;18.65;;;10.88;;
10705;SDS011;5404;42.656;23.336;2023-05-10T09:45:24;16.65;;;11.38;;
10705;SDS011;5404;42.656;23.336;2023-05-10T09:47:50;17.77;;;12.30;;
10705;SDS011;5404;42.656;23.336;2023-05-10T09:50:16;17.60;;;11.45;;
10705;SDS011;5404;42.656;23.336;2023-05-10T09:53:00;20.63;;;13.13;;
10705;SDS011;5404;42.656;23.336;2023-05-10T09:55:44;15.32;;;9.63;;
10705;SDS011;5404;42.656;23.336;2023-05-10T09:58:11;17.50;;;12.27;;
10705;SDS011;5404;42.656;23.336;2023-05-10T10:00:38;18.60;;;11.85;;
10705;SDS011;5404;42.656;23.336;2023-05-10T10:03:05;16.60;;;9.02;;
10705;SDS011;5404;42.656;23.336;2023-05-10T10:05:36;18.63;;;10.13;;
10705;SDS011;5404;42.656;23.336;2023-05-10T10:08:07;21.55;;;10.60;;
10705;SDS011;5404;42.656;23.336;2023-05-10T10:10:33;19.73;;;10.63;;
10705;SDS011;5404;42.656;23.336;2023-05-10T10:12:59;15.93;;;10.52;;
10705;SDS011;5404;42.656;23.336;2023-05-10T10:15:25;13.30;;;6.05;;
10705;SDS011;5404;42.656;23.336;2023-05-10T10:17:52;21.67;;;10.55;;
10705;SDS011;5404;42.656;23.336;2023-05-10T10:20:19;32.38;;;12.15;;
10705;SDS011;5404;42.656;23.336;2023-05-10T10:22:45;19.27;;;10.32;;
10705;SDS011;5404;42.656;23.336;2023-05-10T10:25:12;15.77;;;9.88;;
10705;SDS011;5404;42.656;23.336;2023-05-10T10:35:52;16.63;;;7.80;;
10705;SDS011;5404;42.656;23.336;2023-05-10T10:38:18;14.02;;;7.78;;
10705;SDS011;5404;42.656;23.336;2023-05-10T10:40:44;16.70;;;9.18;;
10705;SDS011;5404;42.656;23.336;2023-05-10T10:43:26;20.58;;;8.38;;
10705;SDS011;5404;42.656;23.336;2023-05-10T10:48:38;11.13;;;7.00;;
10705;SDS011;5404;42.656;23.336;2023-05-10T10:51:03;17.67;;;9.23;;
10705;SDS011;5404;42.656;23.336;2023-05-10T10:53:29;13.77;;;7.82;;
10705;SDS011;5404;42.656;23.336;2023-05-10T10:56:05;21.10;;;9.27;;
10705;SDS011;5404;42.656;23.336;2023-05-10T10:58:35;12.05;;;8.13;;
10705;SDS011;5404;42.656;23.336;2023-05-10T11:01:16;19.98;;;7.63;;
10705;SDS011;5404;42.656;23.336;2023-05-10T11:06:30;18.55;;;9.02;;
10705;SDS011;5404;42.656;23.336;2023-05-10T11:09:09;16.55;;;8.68;;
10705;SDS011;5404;42.656;23.336;2023-05-10T11:11:53;13.27;;;8.82;;
10705;SDS011;5404;42.656;23.336;2023-05-10T11:14:21;25.08;;;11.02;;
10705;SDS011;5404;42.656;23.336;2023-05-10T11:16:51;24.38;;;9.43;;
10705;SDS011;5404;42.656;23.336;2023-05-10T11:19:17;14.77;;;7.90;;
10705;SDS011;5404;42.656;23.336;2023-05-10T11:22:11;20.63;;;9.40;;
10705;SDS011;5404;42.656;23.336;2023-05-10T11:24:38;11.38;;;7.63;;
10705;SDS011;5404;42.656;23.336;2023-05-10T11:27:04;14.93;;;8.95;;
10705;SDS011;5404;42.656;23.336;2023-05-10T11:29:30;22.52;;;8.82;;
10705;SDS011;5404;42.656;23.336;2023-05-10T11:31:56;15.60;;;9.07;;
10705;SDS011;5404;42.656;23.336;2023-05-10T11:36:52;14.75;;;7.30;;
10705;SDS011;5404;42.656;23.336;2023-05-10T11:39:19;19.25;;;9.45;;
10705;SDS011;5404;42.656;23.336;2023-05-10T11:41:46;24.77;;;8.23;;
10705;SDS011;5404;42.656;23.336;2023-05-10T11:44:13;11.82;;;6.65;;
10705;SDS011;5404;42.656;23.336;2023-05-10T11:46:38;9.85;;;7.10;;
10705;SDS011;5404;42.656;23.336;2023-05-10T11:49:04;13.68;;;8.68;;
10705;SDS011;5404;42.656;23.336;2023-05-10T11:51:33;14.68;;;6.43;;
10705;SDS011;5404;42.656;23.336;2023-05-10T11:54:07;14.98;;;8.00;;
10705;SDS011;5404;42.656;23.336;2023-05-10T11:56:34;9.93;;;7.00;;
10705;SDS011;5404;42.656;23.336;2023-05-10T11:59:00;19.65;;;8.30;;
10705;SDS011;5404;42.656;23.336;2023-05-10T12:01:28;14.82;;;8.43;;
10705;SDS011;5404;42.656;23.336;2023-05-10T12:03:55;27.35;;;9.20;;
10705;SDS011;5404;42.656;23.336;2023-05-10T12:06:28;13.55;;;8.98;;
10705;SDS011;5404;42.656;23.336;2023-05-10T12:08:56;14.35;;;8.13;;
10705;SDS011;5404;42.656;23.336;2023-05-10T12:11:25;18.38;;;10.07;;
10705;SDS011;5404;42.656;23.336;2023-05-10T12:13:53;19.40;;;11.93;;
10705;SDS011;5404;42.656;23.336;2023-05-10T12:16:22;24.57;;;10.47;;
10705;SDS011;5404;42.656;23.336;2023-05-10T12:18:56;19.13;;;9.80;;
10705;SDS011;5404;42.656;23.336;2023-05-10T12:21:23;14.57;;;8.98;;
10705;SDS011;5404;42.656;23.336;2023-05-10T12:23:51;14.48;;;9.27;;
10705;SDS011;5404;42.656;23.336;2023-05-10T12:26:18;16.97;;;9.80;;
10705;SDS011;5404;42.656;23.336;2023-05-10T12:28:47;16.75;;;9.57;;
10705;SDS011;5404;42.656;23.336;2023-05-10T12:31:12;12.68;;;9.40;;
10705;SDS011;5404;42.656;23.336;2023-05-10T12:33:42;20.60;;;8.98;;
10705;SDS011;5404;42.656;23.336;2023-05-10T12:36:15;40.53;;;13.30;;
10705;SDS011;5404;42.656;23.336;2023-05-10T12:38:42;24.05;;;10.82;;
10705;SDS011;5404;42.656;23.336;2023-05-10T12:41:09;24.08;;;10.85;;
10705;SDS011;5404;42.656;23.336;2023-05-10T12:43:39;19.20;;;8.68;;
10705;SDS011;5404;42.656;23.336;2023-05-10T12:48:31;11.98;;;6.25;;
10705;SDS011;5404;42.656;23.336;2023-05-10T12:50:56;25.60;;;9.73;;
10705;SDS011;5404;42.656;23.336;2023-05-10T12:53:22;11.07;;;6.22;;
10705;SDS011;5404;42.656;23.336;2023-05-10T12:55:47;22.33;;;10.85;;
10705;SDS011;5404;42.656;23.336;2023-05-10T12:58:15;19.27;;;10.32;;
10705;SDS011;5404;42.656;23.336;2023-05-10T13:00:42;14.07;;;7.15;;
10705;SDS011;5404;42.656;23.336;2023-05-10T13:03:08;15.35;;;8.95;;
10705;SDS011;5404;42.656;23.336;2023-05-10T13:05:36;20.92;;;11.40;;
10705;SDS011;5404;42.656;23.336;2023-05-10T13:08:01;21.77;;;10.27;;
10705;SDS011;5404;42.656;23.336;2023-05-10T13:10:28;25.73;;;12.20;;
10705;SDS011;5404;42.656;23.336;2023-05-10T13:12:57;40.25;;;18.33;;
10705;SDS011;5404;42.656;23.336;2023-05-10T13:15:23;21.92;;;10.13;;
10705;SDS011;5404;42.656;23.336;2023-05-10T13:17:51;13.48;;;7.47;;
10705;SDS011;5404;42.656;23.336;2023-05-10T13:20:16;23.48;;;11.43;;
10705;SDS011;5404;42.656;23.336;2023-05-10T13:22:42;22.02;;;10.45;;
10705;SDS011;5404;42.656;23.336;2023-05-10T13:25:09;20.08;;;11.27;;
10705;SDS011;5404;42.656;23.336;2023-05-10T13:27:35;14.02;;;8.85;;
10705;SDS011;5404;42.656;23.336;2023-05-10T13:30:02;15.77;;;9.98;;
10705;SDS011;5404;42.656;23.336;2023-05-10T13:32:29;35.13;;;10.00;;
10705;SDS011;5404;42.656;23.336;2023-05-10T13:34:54;13.98;;;7.50;;
10705;SDS011;5404;42.656;23.336;2023-05-10T13:37:20;39.28;;;16.67;;
10705;SDS011;5404;42.656;23.336;2023-05-10T13:39:46;24.00;;;12.25;;
10705;SDS011;5404;42.656;23.336;2023-05-10T13:42:12;21.50;;;11.95;;
10705;SDS011;5404;42.656;23.336;2023-05-10T13:44:37;16.02;;;9.80;;
10705;SDS011;5404;42.656;23.336;2023-05-10T13:47:03;22.67;;;10.35;;
10705;SDS011;5404;42.656;23.336;2023-05-10T13:49:32;19.70;;;8.70;;
10705;SDS011;5404;42.656;23.336;2023-05-10T13:51:59;25.33;;;12.23;;
10705;SDS011;5404;42.656;23.336;2023-05-10T13:54:30;20.58;;;10.23;;
10705;SDS011;5404;42.656;23.336;2023-05-10T13:56:56;21.48;;;9.95;;
10705;SDS011;5404;42.656;23.336;2023-05-10T13:59:21;24.60;;;10.23;;
10705;SDS011;5404;42.656;23.336;2023-05-10T14:01:47;23.33;;;10.45;;
10705;SDS011;5404;42.656;23.336;2023-05-10T14:04:12;16.35;;;9.45;;
10705;SDS011;5404;42.656;23.336;2023-05-10T14:06:38;24.15;;;10.38;;
10705;SDS011;5404;42.656;23.336;2023-05-10T14:09:03;16.55;;;9.60;;
10705;SDS011;5404;42.656;23.336;2023-05-10T14:11:29;17.67;;;9.73;;
10705;SDS011;5404;42.656;23.336;2023-05-10T14:13:54;33.13;;;10.13;;
10705;SDS011;5404;42.656;23.336;2023-05-10T14:16:20;19.83;;;10.07;;
10705;SDS011;5404;42.656;23.336;2023-05-10T14:18:46;22.05;;;11.68;;
10705;SDS011;5404;42.656;23.336;2023-05-10T14:21:12;19.50;;;10.35;;
10705;SDS011;5404;42.656;23.336;2023-05-10T14:23:38;25.75;;;10.35;;
10705;SDS011;5404;42.656;23.336;2023-05-10T14:26:04;20.33;;;11.38;;
10705;SDS011;5404;42.656;23.336;2023-05-10T14:28:30;11.32;;;7.40;;
10705;SDS011;5404;42.656;23.336;2023-05-10T14:30:56;15.43;;;9.75;;
10705;SDS011;5404;42.656;23.336;2023-05-10T14:33:21;15.55;;;10.82;;
10705;SDS011;5404;42.656;23.336;2023-05-10T14:35:50;18.13;;;8.93;;
10705;SDS011;5404;42.656;23.336;2023-05-10T14:38:15;12.95;;;7.55;;
10705;SDS011;5404;42.656;23.336;2023-05-10T14:40:42;13.98;;;9.93;;
10705;SDS011;5404;42.656;23.336;2023-05-10T14:43:08;16.45;;;8.80;;
10705;SDS011;5404;42.656;23.336;2023-05-10T14:45:33;15.23;;;9.50;;
10705;SDS011;5404;42.656;23.336;2023-05-10T14:47:58;31.60;;;12.43;;
10705;SDS011;5404;42.656;23.336;2023-05-10T14:50:25;28.02;;;11.20;;
10705;SDS011;5404;42.656;23.336;2023-05-10T14:58:26;34.95;;;13.40;;
10705;SDS011;5404;42.656;23.336;2023-05-10T15:00:52;25.67;;;12.77;;
10705;SDS011;5404;42.656;23.336;2023-05-10T15:03:17;26.40;;;13.73;;
10705;SDS011;5404;42.656;23.336;2023-05-10T15:05:43;24.50;;;11.38;;
10705;SDS011;5404;42.656;23.336;2023-05-10T15:08:14;23.38;;;10.85;;
10705;SDS011;5404;42.656;23.336;2023-05-10T15:10:39;17.95;;;9.90;;
10705;SDS011;5404;42.656;23.336;2023-05-10T15:13:05;20.83;;;11.55;;
10705;SDS011;5404;42.656;23.336;2023-05-10T15:15:30;27.75;;;13.30;;
10705;SDS011;5404;42.656;23.336;2023-05-10T15:17:56;17.55;;;11.05;;
10705;SDS011;5404;42.656;23.336;2023-05-10T15:20:22;25.00;;;10.32;;
10705;SDS011;5404;42.656;23.336;2023-05-10T15:22:49;21.98;;;10.18;;